sensor_id;sensor_type;location;lat;lon;timestamp;P1;durP1;ratioP1;P2;durP2;ratioP2
71288;SDS011;59068;52.502;9.860;2022-07-23T00:02:23;5.60;;;3.83;;
71288;SDS011;59068;52.502;9.860;2022-07-23T00:04:48;4.70;;;3.77;;
71288;SDS011;59068;52.502;9.860;2022-07-23T00:07:14;4.57;;;4.17;;
71288;SDS011;59068;52.502;9.860;2022-07-23T00:09:39;6.10;;;4.33;;
71288;SDS011;59068;52.502;9.860;2022-07-23T00:12:06;5.10;;;3.93;;
71288;SDS011;59068;52.502;9.860;2022-07-23T00:14:31;5.80;;;4.27;;
71288;SDS011;59068;52.502;9.860;2022-07-23T00:16:57;4.53;;;3.90;;
71288;SDS011;59068;52.502;9.860;2022-07-23T00:19:22;5.50;;;3.90;;
71288;SDS011;59068;52.502;9.860;2022-07-23T00:21:47;5.30;;;4.17;;
71288;SDS011;59068;52.502;9.860;2022-07-23T00:24:14;5.20;;;4.33;;
71288;SDS011;59068;52.502;9.860;2022-07-23T00:26:40;4.87;;;3.90;;
71288;SDS011;59068;52.502;9.860;2022-07-23T00:29:06;5.43;;;4.00;;
71288;SDS011;59068;52.502;9.860;2022-07-23T00:31:34;4.27;;;3.93;;
71288;SDS011;59068;52.502;9.860;2022-07-23T00:33:59;4.33;;;3.93;;
71288;SDS011;59068;52.502;9.860;2022-07-23T00:36:27;6.07;;;3.80;;
71288;SDS011;59068;52.502;9.860;2022-07-23T00:38:53;5.00;;;4.50;;
71288;SDS011;59068;52.502;9.860;2022-07-23T00:41:20;4.73;;;4.30;;
71288;SDS011;59068;52.502;9.860;2022-07-23T00:43:45;5.13;;;4.00;;
71288;SDS011;59068;52.502;9.860;2022-07-23T00:46:10;5.20;;;4.03;;
71288;SDS011;59068;52.502;9.860;2022-07-23T00:48:36;4.37;;;3.77;;
71288;SDS011;59068;52.502;9.860;2022-07-23T00:51:01;4.73;;;4.30;;
71288;SDS011;59068;52.502;9.860;2022-07-23T00:53:27;5.10;;;4.27;;
71288;SDS011;59068;52.502;9.860;2022-07-23T00:55:52;4.87;;;4.00;;
71288;SDS011;59068;52.502;9.860;2022-07-23T00:58:20;4.67;;;3.80;;
71288;SDS011;59068;52.502;9.860;2022-07-23T01:00:45;4.13;;;3.73;;
71288;SDS011;59068;52.502;9.860;2022-07-23T01:03:12;4.53;;;3.50;;
71288;SDS011;59068;52.502;9.860;2022-07-23T01:05:39;3.83;;;3.53;;
71288;SDS011;59068;52.502;9.860;2022-07-23T01:08:05;4.27;;;3.87;;
71288;SDS011;59068;52.502;9.860;2022-07-23T01:10:30;4.03;;;3.73;;
71288;SDS011;59068;52.502;9.860;2022-07-23T01:12:56;4.87;;;4.37;;
71288;SDS011;59068;52.502;9.860;2022-07-23T01:15:24;3.97;;;3.67;;
71288;SDS011;59068;52.502;9.860;2022-07-23T01:17:50;5.20;;;3.63;;
71288;SDS011;59068;52.502;9.860;2022-07-23T01:20:17;4.13;;;3.83;;
71288;SDS011;59068;52.502;9.860;2022-07-23T01:22:43;4.40;;;4.00;;
71288;SDS011;59068;52.502;9.860;2022-07-23T01:25:10;4.47;;;3.90;;
71288;SDS011;59068;52.502;9.860;2022-07-23T01:27:35;5.00;;;3.90;;
71288;SDS011;59068;52.502;9.860;2022-07-23T01:30:01;4.27;;;3.97;;
71288;SDS011;59068;52.502;9.860;2022-07-23T01:32:26;4.10;;;3.80;;
71288;SDS011;59068;52.502;9.860;2022-07-23T01:34:53;4.30;;;3.90;;
71288;SDS011;59068;52.502;9.860;2022-07-23T01:37:18;4.17;;;3.87;;
71288;SDS011;59068;52.502;9.860;2022-07-23T01:39:44;5.20;;;3.93;;
71288;SDS011;59068;52.502;9.860;2022-07-23T01:42:09;6.13;;;4.00;;
71288;SDS011;59068;52.502;9.860;2022-07-23T01:44:34;5.43;;;4.20;;
71288;SDS011;59068;52.502;9.860;2022-07-23T01:47:00;4.20;;;3.90;;
71288;SDS011;59068;52.502;9.860;2022-07-23T01:49:25;4.70;;;3.67;;
71288;SDS011;59068;52.502;9.860;2022-07-23T01:51:51;4.67;;;4.20;;
71288;SDS011;59068;52.502;9.860;2022-07-23T01:54:34;3.90;;;3.60;;
71288;SDS011;59068;52.502;9.860;2022-07-23T01:57:00;4.17;;;3.77;;
71288;SDS011;59068;52.502;9.860;2022-07-23T01:59:26;4.20;;;3.87;;
71288;SDS011;59068;52.502;9.860;2022-07-23T02:01:52;4.40;;;4.10;;
71288;SDS011;59068;52.502;9.860;2022-07-23T02:04:20;4.27;;;3.87;;
71288;SDS011;59068;52.502;9.860;2022-07-23T02:06:45;4.43;;;4.03;;
71288;SDS011;59068;52.502;9.860;2022-07-23T02:09:11;4.10;;;3.70;;
71288;SDS011;59068;52.502;9.860;2022-07-23T02:11:36;4.73;;;4.33;;
71288;SDS011;59068;52.502;9.860;2022-07-23T02:14:02;4.57;;;3.80;;
71288;SDS011;59068;52.502;9.860;2022-07-23T02:16:27;5.37;;;4.00;;
71288;SDS011;59068;52.502;9.860;2022-07-23T02:18:54;4.07;;;3.77;;
71288;SDS011;59068;52.502;9.860;2022-07-23T02:21:19;4.70;;;4.30;;
71288;SDS011;59068;52.502;9.860;2022-07-23T02:23:45;4.67;;;4.20;;
71288;SDS011;59068;52.502;9.860;2022-07-23T02:26:11;4.40;;;4.00;;
71288;SDS011;59068;52.502;9.860;2022-07-23T02:28:37;5.20;;;4.70;;
71288;SDS011;59068;52.502;9.860;2022-07-23T02:31:02;5.53;;;4.73;;
71288;SDS011;59068;52.502;9.860;2022-07-23T02:33:28;5.40;;;4.90;;
71288;SDS011;59068;52.502;9.860;2022-07-23T02:35:54;5.37;;;4.87;;
71288;SDS011;59068;52.502;9.860;2022-07-23T02:38:19;5.17;;;4.70;;
71288;SDS011;59068;52.502;9.860;2022-07-23T02:40:44;5.40;;;4.90;;
71288;SDS011;59068;52.502;9.860;2022-07-23T02:43:10;5.87;;;4.70;;
71288;SDS011;59068;52.502;9.860;2022-07-23T02:45:35;4.43;;;4.13;;
71288;SDS011;59068;52.502;9.860;2022-07-23T02:48:00;5.20;;;4.70;;
71288;SDS011;59068;52.502;9.860;2022-07-23T02:50:26;7.77;;;5.00;;
71288;SDS011;59068;52.502;9.860;2022-07-23T02:52:51;5.03;;;4.57;;
71288;SDS011;59068;52.502;9.860;2022-07-23T02:55:18;5.83;;;5.33;;
71288;SDS011;59068;52.502;9.860;2022-07-23T02:57:43;5.50;;;5.00;;
71288;SDS011;59068;52.502;9.860;2022-07-23T03:00:10;7.27;;;6.30;;
71288;SDS011;59068;52.502;9.860;2022-07-23T03:02:36;5.93;;;5.33;;
71288;SDS011;59068;52.502;9.860;2022-07-23T03:05:01;5.33;;;4.93;;
71288;SDS011;59068;52.502;9.860;2022-07-23T03:07:27;6.10;;;5.50;;
71288;SDS011;59068;52.502;9.860;2022-07-23T03:09:52;5.43;;;4.93;;
71288;SDS011;59068;52.502;9.860;2022-07-23T03:12:19;6.37;;;5.77;;
71288;SDS011;59068;52.502;9.860;2022-07-23T03:14:44;6.10;;;4.97;;
71288;SDS011;59068;52.502;9.860;2022-07-23T03:17:09;5.57;;;5.10;;
71288;SDS011;59068;52.502;9.860;2022-07-23T03:19:36;7.63;;;5.47;;
71288;SDS011;59068;52.502;9.860;2022-07-23T03:22:02;6.80;;;5.47;;
71288;SDS011;59068;52.502;9.860;2022-07-23T03:24:28;6.83;;;5.83;;
71288;SDS011;59068;52.502;9.860;2022-07-23T03:27:11;7.80;;;5.87;;
71288;SDS011;59068;52.502;9.860;2022-07-23T03:29:38;6.07;;;5.47;;
71288;SDS011;59068;52.502;9.860;2022-07-23T03:32:04;6.77;;;5.40;;
71288;SDS011;59068;52.502;9.860;2022-07-23T03:34:29;6.97;;;6.33;;
71288;SDS011;59068;52.502;9.860;2022-07-23T03:36:55;5.93;;;5.33;;
71288;SDS011;59068;52.502;9.860;2022-07-23T03:39:21;6.53;;;5.93;;
71288;SDS011;59068;52.502;9.860;2022-07-23T03:41:47;6.40;;;5.90;;
71288;SDS011;59068;52.502;9.860;2022-07-23T03:44:12;6.87;;;5.93;;
71288;SDS011;59068;52.502;9.860;2022-07-23T03:46:37;7.27;;;5.50;;
71288;SDS011;59068;52.502;9.860;2022-07-23T03:49:04;6.97;;;6.27;;
71288;SDS011;59068;52.502;9.860;2022-07-23T03:51:29;5.80;;;5.30;;
71288;SDS011;59068;52.502;9.860;2022-07-23T03:53:55;5.90;;;5.30;;
71288;SDS011;59068;52.502;9.860;2022-07-23T03:56:20;5.73;;;5.30;;
71288;SDS011;59068;52.502;9.860;2022-07-23T03:58:47;6.60;;;6.03;;
71288;SDS011;59068;52.502;9.860;2022-07-23T04:01:13;6.10;;;5.50;;
71288;SDS011;59068;52.502;9.860;2022-07-23T04:03:38;5.80;;;5.30;;
71288;SDS011;59068;52.502;9.860;2022-07-23T04:06:05;6.83;;;5.73;;
71288;SDS011;59068;52.502;9.860;2022-07-23T04:08:31;8.33;;;6.80;;
71288;SDS011;59068;52.502;9.860;2022-07-23T04:10:56;6.90;;;6.30;;
71288;SDS011;59068;52.502;9.860;2022-07-23T04:13:22;7.00;;;6.33;;
71288;SDS011;59068;52.502;9.860;2022-07-23T04:15:47;8.03;;;7.20;;
71288;SDS011;59068;52.502;9.860;2022-07-23T04:18:13;7.80;;;6.53;;
71288;SDS011;59068;52.502;9.860;2022-07-23T04:20:38;8.17;;;7.10;;
71288;SDS011;59068;52.502;9.860;2022-07-23T04:23:03;7.80;;;7.10;;
71288;SDS011;59068;52.502;9.860;2022-07-23T04:25:30;8.13;;;7.33;;
71288;SDS011;59068;52.502;9.860;2022-07-23T04:27:56;8.03;;;7.30;;
71288;SDS011;59068;52.502;9.860;2022-07-23T04:30:21;9.20;;;7.50;;
71288;SDS011;59068;52.502;9.860;2022-07-23T04:32:46;7.80;;;7.10;;
71288;SDS011;59068;52.502;9.860;2022-07-23T04:35:13;9.53;;;7.63;;
71288;SDS011;59068;52.502;9.860;2022-07-23T04:37:40;9.10;;;8.20;;
71288;SDS011;59068;52.502;9.860;2022-07-23T04:40:07;8.23;;;7.43;;
71288;SDS011;59068;52.502;9.860;2022-07-23T04:42:36;9.53;;;8.53;;
71288;SDS011;59068;52.502;9.860;2022-07-23T04:45:03;8.57;;;7.67;;
71288;SDS011;59068;52.502;9.860;2022-07-23T04:47:29;8.53;;;7.63;;
71288;SDS011;59068;52.502;9.860;2022-07-23T04:49:57;8.87;;;7.97;;
71288;SDS011;59068;52.502;9.860;2022-07-23T04:52:23;9.57;;;8.17;;
71288;SDS011;59068;52.502;9.860;2022-07-23T04:54:48;8.67;;;7.83;;
71288;SDS011;59068;52.502;9.860;2022-07-23T04:57:14;7.93;;;7.23;;
71288;SDS011;59068;52.502;9.860;2022-07-23T04:59:41;8.40;;;7.70;;
71288;SDS011;59068;52.502;9.860;2022-07-23T05:02:07;9.10;;;8.20;;
71288;SDS011;59068;52.502;9.860;2022-07-23T05:04:34;9.00;;;8.03;;
71288;SDS011;59068;52.502;9.860;2022-07-23T05:06:59;14.37;;;8.10;;
71288;SDS011;59068;52.502;9.860;2022-07-23T05:09:25;11.10;;;8.00;;
71288;SDS011;59068;52.502;9.860;2022-07-23T05:11:50;10.40;;;7.93;;
71288;SDS011;59068;52.502;9.860;2022-07-23T05:14:17;8.37;;;7.53;;
71288;SDS011;59068;52.502;9.860;2022-07-23T05:16:42;8.40;;;7.60;;
71288;SDS011;59068;52.502;9.860;2022-07-23T05:19:08;9.80;;;8.70;;
71288;SDS011;59068;52.502;9.860;2022-07-23T05:21:33;11.40;;;9.23;;
71288;SDS011;59068;52.502;9.860;2022-07-23T05:24:00;11.23;;;9.20;;
71288;SDS011;59068;52.502;9.860;2022-07-23T05:26:25;10.00;;;9.07;;
71288;SDS011;59068;52.502;9.860;2022-07-23T05:28:51;10.20;;;8.83;;
71288;SDS011;59068;52.502;9.860;2022-07-23T05:31:16;10.23;;;9.23;;
71288;SDS011;59068;52.502;9.860;2022-07-23T05:33:42;11.03;;;10.07;;
71288;SDS011;59068;52.502;9.860;2022-07-23T05:36:07;11.73;;;10.63;;
71288;SDS011;59068;52.502;9.860;2022-07-23T05:38:33;12.03;;;9.37;;
71288;SDS011;59068;52.502;9.860;2022-07-23T05:40:59;11.07;;;9.90;;
71288;SDS011;59068;52.502;9.860;2022-07-23T05:43:25;11.27;;;10.03;;
71288;SDS011;59068;52.502;9.860;2022-07-23T05:45:51;10.30;;;9.33;;
71288;SDS011;59068;52.502;9.860;2022-07-23T05:48:17;10.93;;;9.90;;
71288;SDS011;59068;52.502;9.860;2022-07-23T05:50:42;11.60;;;9.10;;
71288;SDS011;59068;52.502;9.860;2022-07-23T05:53:08;10.13;;;8.33;;
71288;SDS011;59068;52.502;9.860;2022-07-23T05:55:34;10.63;;;9.13;;
71288;SDS011;59068;52.502;9.860;2022-07-23T05:58:00;11.10;;;9.00;;
71288;SDS011;59068;52.502;9.860;2022-07-23T06:00:26;9.17;;;8.43;;
71288;SDS011;59068;52.502;9.860;2022-07-23T06:02:52;9.53;;;8.60;;
71288;SDS011;59068;52.502;9.860;2022-07-23T06:05:19;8.33;;;7.63;;
71288;SDS011;59068;52.502;9.860;2022-07-23T06:07:44;9.27;;;8.33;;
71288;SDS011;59068;52.502;9.860;2022-07-23T06:10:11;9.20;;;8.00;;
71288;SDS011;59068;52.502;9.860;2022-07-23T06:12:36;8.50;;;7.70;;
71288;SDS011;59068;52.502;9.860;2022-07-23T06:15:03;8.67;;;7.80;;
71288;SDS011;59068;52.502;9.860;2022-07-23T06:17:29;9.30;;;7.27;;
71288;SDS011;59068;52.502;9.860;2022-07-23T06:19:55;11.17;;;6.37;;
71288;SDS011;59068;52.502;9.860;2022-07-23T06:22:22;7.47;;;6.67;;
71288;SDS011;59068;52.502;9.860;2022-07-23T06:24:48;7.33;;;6.27;;
71288;SDS011;59068;52.502;9.860;2022-07-23T06:27:14;9.43;;;6.47;;
71288;SDS011;59068;52.502;9.860;2022-07-23T06:29:39;7.67;;;5.80;;
71288;SDS011;59068;52.502;9.860;2022-07-23T06:32:05;4.93;;;4.53;;
71288;SDS011;59068;52.502;9.860;2022-07-23T06:34:31;7.10;;;5.47;;
71288;SDS011;59068;52.502;9.860;2022-07-23T06:36:56;8.77;;;4.80;;
71288;SDS011;59068;52.502;9.860;2022-07-23T06:39:23;7.37;;;5.87;;
71288;SDS011;59068;52.502;9.860;2022-07-23T06:41:49;4.77;;;4.37;;
71288;SDS011;59068;52.502;9.860;2022-07-23T06:44:15;6.60;;;4.97;;
71288;SDS011;59068;52.502;9.860;2022-07-23T06:46:40;7.40;;;4.70;;
71288;SDS011;59068;52.502;9.860;2022-07-23T06:49:05;5.90;;;5.33;;
71288;SDS011;59068;52.502;9.860;2022-07-23T06:51:31;7.37;;;5.53;;
71288;SDS011;59068;52.502;9.860;2022-07-23T06:53:58;6.67;;;4.90;;
71288;SDS011;59068;52.502;9.860;2022-07-23T06:56:23;5.83;;;4.50;;
71288;SDS011;59068;52.502;9.860;2022-07-23T06:58:49;6.07;;;5.43;;
71288;SDS011;59068;52.502;9.860;2022-07-23T07:01:14;7.63;;;5.90;;
71288;SDS011;59068;52.502;9.860;2022-07-23T07:03:39;6.27;;;5.53;;
71288;SDS011;59068;52.502;9.860;2022-07-23T07:06:05;5.93;;;5.10;;
71288;SDS011;59068;52.502;9.860;2022-07-23T07:08:32;6.50;;;5.90;;
71288;SDS011;59068;52.502;9.860;2022-07-23T07:10:57;6.57;;;4.67;;
71288;SDS011;59068;52.502;9.860;2022-07-23T07:13:24;5.70;;;5.00;;
71288;SDS011;59068;52.502;9.860;2022-07-23T07:15:49;6.20;;;4.80;;
71288;SDS011;59068;52.502;9.860;2022-07-23T07:18:16;6.67;;;4.10;;
71288;SDS011;59068;52.502;9.860;2022-07-23T07:20:41;6.80;;;4.67;;
71288;SDS011;59068;52.502;9.860;2022-07-23T07:23:06;8.10;;;4.27;;
71288;SDS011;59068;52.502;9.860;2022-07-23T07:25:32;4.43;;;4.03;;
71288;SDS011;59068;52.502;9.860;2022-07-23T07:27:57;5.27;;;4.10;;
71288;SDS011;59068;52.502;9.860;2022-07-23T07:30:23;6.13;;;3.90;;
71288;SDS011;59068;52.502;9.860;2022-07-23T07:32:49;4.43;;;3.20;;
71288;SDS011;59068;52.502;9.860;2022-07-23T07:35:14;4.47;;;4.00;;
71288;SDS011;59068;52.502;9.860;2022-07-23T07:37:40;4.53;;;4.00;;
71288;SDS011;59068;52.502;9.860;2022-07-23T07:40:05;5.30;;;3.80;;
71288;SDS011;59068;52.502;9.860;2022-07-23T07:42:31;5.73;;;4.17;;
71288;SDS011;59068;52.502;9.860;2022-07-23T07:44:57;6.57;;;3.80;;
71288;SDS011;59068;52.502;9.860;2022-07-23T07:47:22;5.67;;;4.40;;
71288;SDS011;59068;52.502;9.860;2022-07-23T07:49:48;6.40;;;3.53;;
71288;SDS011;59068;52.502;9.860;2022-07-23T07:52:13;5.13;;;3.47;;
71288;SDS011;59068;52.502;9.860;2022-07-23T07:54:38;4.93;;;3.73;;
71288;SDS011;59068;52.502;9.860;2022-07-23T07:57:04;4.23;;;3.83;;
71288;SDS011;59068;52.502;9.860;2022-07-23T07:59:29;4.23;;;3.50;;
71288;SDS011;59068;52.502;9.860;2022-07-23T08:01:56;6.27;;;3.93;;
71288;SDS011;59068;52.502;9.860;2022-07-23T08:04:22;5.57;;;4.00;;
71288;SDS011;59068;52.502;9.860;2022-07-23T08:06:48;4.10;;;3.67;;
71288;SDS011;59068;52.502;9.860;2022-07-23T08:09:13;4.27;;;3.87;;
71288;SDS011;59068;52.502;9.860;2022-07-23T08:11:38;3.97;;;3.60;;
71288;SDS011;59068;52.502;9.860;2022-07-23T08:14:05;4.83;;;3.90;;
71288;SDS011;59068;52.502;9.860;2022-07-23T08:16:30;4.77;;;3.90;;
71288;SDS011;59068;52.502;9.860;2022-07-23T08:18:57;4.67;;;3.70;;
71288;SDS011;59068;52.502;9.860;2022-07-23T08:21:22;3.93;;;3.63;;
71288;SDS011;59068;52.502;9.860;2022-07-23T08:23:48;6.53;;;3.87;;
71288;SDS011;59068;52.502;9.860;2022-07-23T08:26:13;2.90;;;2.07;;
71288;SDS011;59068;52.502;9.860;2022-07-23T08:28:39;5.17;;;3.30;;
71288;SDS011;59068;52.502;9.860;2022-07-23T08:31:04;3.83;;;2.73;;
71288;SDS011;59068;52.502;9.860;2022-07-23T08:33:30;3.60;;;3.30;;
71288;SDS011;59068;52.502;9.860;2022-07-23T08:35:56;3.40;;;3.10;;
71288;SDS011;59068;52.502;9.860;2022-07-23T08:38:23;4.73;;;3.13;;
71288;SDS011;59068;52.502;9.860;2022-07-23T08:40:52;6.77;;;3.67;;
71288;SDS011;59068;52.502;9.860;2022-07-23T08:43:29;4.10;;;3.07;;
71288;SDS011;59068;52.502;9.860;2022-07-23T08:45:56;6.93;;;4.00;;
71288;SDS011;59068;52.502;9.860;2022-07-23T08:48:28;5.33;;;3.10;;
71288;SDS011;59068;52.502;9.860;2022-07-23T08:50:56;3.63;;;2.10;;
71288;SDS011;59068;52.502;9.860;2022-07-23T08:53:24;4.67;;;2.40;;
71288;SDS011;59068;52.502;9.860;2022-07-23T08:55:53;3.13;;;1.80;;
71288;SDS011;59068;52.502;9.860;2022-07-23T08:58:21;2.50;;;2.00;;
71288;SDS011;59068;52.502;9.860;2022-07-23T09:00:48;3.77;;;2.00;;
71288;SDS011;59068;52.502;9.860;2022-07-23T09:03:30;2.53;;;2.00;;
71288;SDS011;59068;52.502;9.860;2022-07-23T09:05:58;2.20;;;1.93;;
71288;SDS011;59068;52.502;9.860;2022-07-23T09:08:24;2.97;;;2.00;;
71288;SDS011;59068;52.502;9.860;2022-07-23T09:11:00;2.40;;;1.57;;
71288;SDS011;59068;52.502;9.860;2022-07-23T09:13:32;2.00;;;1.70;;
71288;SDS011;59068;52.502;9.860;2022-07-23T09:16:10;3.77;;;1.90;;
71288;SDS011;59068;52.502;9.860;2022-07-23T09:18:48;1.77;;;1.40;;
71288;SDS011;59068;52.502;9.860;2022-07-23T09:21:32;2.10;;;1.60;;
71288;SDS011;59068;52.502;9.860;2022-07-23T09:26:42;2.97;;;1.83;;
71288;SDS011;59068;52.502;9.860;2022-07-23T09:29:21;3.47;;;1.50;;
71288;SDS011;59068;52.502;9.860;2022-07-23T09:31:56;4.17;;;1.70;;
71288;SDS011;59068;52.502;9.860;2022-07-23T09:34:25;1.53;;;1.40;;
71288;SDS011;59068;52.502;9.860;2022-07-23T09:36:52;1.47;;;1.23;;
71288;SDS011;59068;52.502;9.860;2022-07-23T09:39:38;2.00;;;1.27;;
71288;SDS011;59068;52.502;9.860;2022-07-23T09:44:47;2.67;;;1.37;;
71288;SDS011;59068;52.502;9.860;2022-07-23T09:47:19;1.40;;;1.13;;
71288;SDS011;59068;52.502;9.860;2022-07-23T09:52:49;1.97;;;1.03;;
71288;SDS011;59068;52.502;9.860;2022-07-23T09:55:16;1.43;;;0.90;;
71288;SDS011;59068;52.502;9.860;2022-07-23T09:57:44;2.47;;;1.20;;
71288;SDS011;59068;52.502;9.860;2022-07-23T10:00:12;2.57;;;1.23;;
71288;SDS011;59068;52.502;9.860;2022-07-23T10:02:38;1.70;;;0.90;;
71288;SDS011;59068;52.502;9.860;2022-07-23T10:05:04;2.20;;;1.37;;
71288;SDS011;59068;52.502;9.860;2022-07-23T10:07:33;1.83;;;1.67;;
71288;SDS011;59068;52.502;9.860;2022-07-23T10:10:01;2.13;;;1.20;;
71288;SDS011;59068;52.502;9.860;2022-07-23T10:12:29;2.90;;;1.10;;
71288;SDS011;59068;52.502;9.860;2022-07-23T10:15:12;2.50;;;1.47;;
71288;SDS011;59068;52.502;9.860;2022-07-23T10:17:38;1.77;;;1.10;;
71288;SDS011;59068;52.502;9.860;2022-07-23T10:20:04;1.10;;;0.93;;
71288;SDS011;59068;52.502;9.860;2022-07-23T10:22:35;2.10;;;1.20;;
71288;SDS011;59068;52.502;9.860;2022-07-23T10:25:22;2.40;;;1.43;;
71288;SDS011;59068;52.502;9.860;2022-07-23T10:40:08;2.43;;;1.40;;
71288;SDS011;59068;52.502;9.860;2022-07-23T10:42:45;1.80;;;0.90;;
71288;SDS011;59068;52.502;9.860;2022-07-23T10:48:11;1.63;;;1.27;;
71288;SDS011;59068;52.502;9.860;2022-07-23T10:50:38;1.53;;;1.10;;
71288;SDS011;59068;52.502;9.860;2022-07-23T10:58:23;1.30;;;1.20;;
71288;SDS011;59068;52.502;9.860;2022-07-23T11:04:04;1.50;;;1.40;;
71288;SDS011;59068;52.502;9.860;2022-07-23T11:17:29;4.23;;;1.00;;
71288;SDS011;59068;52.502;9.860;2022-07-23T11:22:54;2.77;;;0.90;;
71288;SDS011;59068;52.502;9.860;2022-07-23T11:27:50;1.67;;;0.90;;
71288;SDS011;59068;52.502;9.860;2022-07-23T11:32:50;1.33;;;0.80;;
71288;SDS011;59068;52.502;9.860;2022-07-23T11:35:23;1.60;;;0.73;;
71288;SDS011;59068;52.502;9.860;2022-07-23T11:37:53;1.73;;;0.83;;
71288;SDS011;59068;52.502;9.860;2022-07-23T11:40:23;1.17;;;0.87;;
71288;SDS011;59068;52.502;9.860;2022-07-23T11:42:57;2.10;;;0.83;;
71288;SDS011;59068;52.502;9.860;2022-07-23T11:45:32;0.83;;;0.60;;
71288;SDS011;59068;52.502;9.860;2022-07-23T11:48:01;1.10;;;0.70;;
71288;SDS011;59068;52.502;9.860;2022-07-23T11:50:27;0.80;;;0.80;;
71288;SDS011;59068;52.502;9.860;2022-07-23T11:52:53;2.50;;;0.90;;
71288;SDS011;59068;52.502;9.860;2022-07-23T11:55:20;1.53;;;0.60;;
71288;SDS011;59068;52.502;9.860;2022-07-23T11:57:46;1.40;;;0.70;;
71288;SDS011;59068;52.502;9.860;2022-07-23T12:00:16;1.43;;;0.80;;
71288;SDS011;59068;52.502;9.860;2022-07-23T12:02:46;2.33;;;0.83;;
71288;SDS011;59068;52.502;9.860;2022-07-23T12:05:13;1.73;;;0.87;;
71288;SDS011;59068;52.502;9.860;2022-07-23T12:07:41;0.93;;;0.70;;
71288;SDS011;59068;52.502;9.860;2022-07-23T12:12:50;2.03;;;0.60;;
71288;SDS011;59068;52.502;9.860;2022-07-23T12:15:28;0.97;;;0.50;;
71288;SDS011;59068;52.502;9.860;2022-07-23T12:17:56;1.17;;;0.60;;
71288;SDS011;59068;52.502;9.860;2022-07-23T12:20:26;1.33;;;0.53;;
71288;SDS011;59068;52.502;9.860;2022-07-23T12:22:59;1.20;;;0.47;;
71288;SDS011;59068;52.502;9.860;2022-07-23T12:25:31;2.27;;;0.57;;
71288;SDS011;59068;52.502;9.860;2022-07-23T12:30:50;0.60;;;0.50;;
71288;SDS011;59068;52.502;9.860;2022-07-23T12:36:06;1.27;;;0.53;;
71288;SDS011;59068;52.502;9.860;2022-07-23T12:38:38;1.23;;;0.50;;
71288;SDS011;59068;52.502;9.860;2022-07-23T12:41:06;1.30;;;0.60;;
71288;SDS011;59068;52.502;9.860;2022-07-23T12:43:36;2.77;;;0.50;;
71288;SDS011;59068;52.502;9.860;2022-07-23T12:46:15;0.63;;;0.60;;
71288;SDS011;59068;52.502;9.860;2022-07-23T12:48:51;1.53;;;0.50;;
71288;SDS011;59068;52.502;9.860;2022-07-23T12:53:51;1.50;;;0.80;;
71288;SDS011;59068;52.502;9.860;2022-07-23T12:56:31;2.30;;;0.60;;
71288;SDS011;59068;52.502;9.860;2022-07-23T12:59:03;1.40;;;0.50;;
71288;SDS011;59068;52.502;9.860;2022-07-23T13:01:36;5.23;;;0.50;;
71288;SDS011;59068;52.502;9.860;2022-07-23T13:04:09;0.67;;;0.53;;
71288;SDS011;59068;52.502;9.860;2022-07-23T13:09:12;1.27;;;0.50;;
71288;SDS011;59068;52.502;9.860;2022-07-23T13:11:39;1.83;;;0.70;;
71288;SDS011;59068;52.502;9.860;2022-07-23T13:14:06;0.97;;;0.50;;
71288;SDS011;59068;52.502;9.860;2022-07-23T13:16:32;0.93;;;0.60;;
71288;SDS011;59068;52.502;9.860;2022-07-23T13:18:59;3.17;;;0.50;;
71288;SDS011;59068;52.502;9.860;2022-07-23T13:21:26;1.30;;;0.67;;
71288;SDS011;59068;52.502;9.860;2022-07-23T13:23:53;2.17;;;0.50;;
71288;SDS011;59068;52.502;9.860;2022-07-23T13:26:20;1.13;;;0.50;;
71288;SDS011;59068;52.502;9.860;2022-07-23T13:28:47;1.13;;;0.60;;
71288;SDS011;59068;52.502;9.860;2022-07-23T13:31:13;1.00;;;0.53;;
71288;SDS011;59068;52.502;9.860;2022-07-23T13:33:39;0.43;;;0.43;;
71288;SDS011;59068;52.502;9.860;2022-07-23T13:36:05;1.10;;;0.50;;
71288;SDS011;59068;52.502;9.860;2022-07-23T13:38:34;1.80;;;0.30;;
71288;SDS011;59068;52.502;9.860;2022-07-23T13:41:01;0.70;;;0.50;;
71288;SDS011;59068;52.502;9.860;2022-07-23T13:43:29;1.67;;;0.67;;
71288;SDS011;59068;52.502;9.860;2022-07-23T13:45:55;1.27;;;0.40;;
71288;SDS011;59068;52.502;9.860;2022-07-23T13:48:22;0.87;;;0.70;;
71288;SDS011;59068;52.502;9.860;2022-07-23T13:50:49;3.53;;;0.73;;
71288;SDS011;59068;52.502;9.860;2022-07-23T13:53:17;1.60;;;0.70;;
71288;SDS011;59068;52.502;9.860;2022-07-23T13:55:46;1.77;;;0.70;;
71288;SDS011;59068;52.502;9.860;2022-07-23T13:58:12;1.33;;;0.50;;
71288;SDS011;59068;52.502;9.860;2022-07-23T14:00:45;2.33;;;0.50;;
71288;SDS011;59068;52.502;9.860;2022-07-23T14:03:12;1.57;;;0.50;;
71288;SDS011;59068;52.502;9.860;2022-07-23T14:05:39;0.77;;;0.60;;
71288;SDS011;59068;52.502;9.860;2022-07-23T14:08:07;0.40;;;0.40;;
71288;SDS011;59068;52.502;9.860;2022-07-23T14:10:34;1.13;;;0.47;;
71288;SDS011;59068;52.502;9.860;2022-07-23T14:13:01;1.60;;;0.50;;
71288;SDS011;59068;52.502;9.860;2022-07-23T14:15:29;0.87;;;0.50;;
71288;SDS011;59068;52.502;9.860;2022-07-23T14:17:56;1.23;;;0.50;;
71288;SDS011;59068;52.502;9.860;2022-07-23T14:20:23;3.33;;;0.70;;
71288;SDS011;59068;52.502;9.860;2022-07-23T14:22:50;1.10;;;0.60;;
71288;SDS011;59068;52.502;9.860;2022-07-23T14:25:17;1.03;;;0.60;;
71288;SDS011;59068;52.502;9.860;2022-07-23T14:27:44;1.30;;;0.70;;
71288;SDS011;59068;52.502;9.860;2022-07-23T14:30:11;2.10;;;0.80;;
71288;SDS011;59068;52.502;9.860;2022-07-23T14:32:37;1.40;;;0.50;;
71288;SDS011;59068;52.502;9.860;2022-07-23T14:35:04;0.73;;;0.60;;
71288;SDS011;59068;52.502;9.860;2022-07-23T14:37:32;1.20;;;0.60;;
71288;SDS011;59068;52.502;9.860;2022-07-23T14:39:59;1.80;;;0.50;;
71288;SDS011;59068;52.502;9.860;2022-07-23T14:42:25;1.70;;;0.60;;
71288;SDS011;59068;52.502;9.860;2022-07-23T14:44:51;1.80;;;0.70;;
71288;SDS011;59068;52.502;9.860;2022-07-23T14:47:16;0.73;;;0.40;;
71288;SDS011;59068;52.502;9.860;2022-07-23T14:49:44;2.10;;;0.60;;
71288;SDS011;59068;52.502;9.860;2022-07-23T14:52:11;0.77;;;0.40;;
71288;SDS011;59068;52.502;9.860;2022-07-23T14:54:37;0.70;;;0.70;;
71288;SDS011;59068;52.502;9.860;2022-07-23T14:57:04;0.73;;;0.40;;
71288;SDS011;59068;52.502;9.860;2022-07-23T14:59:29;1.43;;;0.60;;
71288;SDS011;59068;52.502;9.860;2022-07-23T15:01:57;1.60;;;0.40;;
71288;SDS011;59068;52.502;9.860;2022-07-23T15:04:24;0.97;;;0.53;;
71288;SDS011;59068;52.502;9.860;2022-07-23T15:06:49;0.50;;;0.43;;
71288;SDS011;59068;52.502;9.860;2022-07-23T15:09:16;2.27;;;0.97;;
71288;SDS011;59068;52.502;9.860;2022-07-23T15:11:43;2.10;;;0.40;;
71288;SDS011;59068;52.502;9.860;2022-07-23T15:14:10;1.23;;;0.50;;
71288;SDS011;59068;52.502;9.860;2022-07-23T15:16:37;0.90;;;0.47;;
71288;SDS011;59068;52.502;9.860;2022-07-23T15:19:03;1.40;;;0.57;;
71288;SDS011;59068;52.502;9.860;2022-07-23T15:21:30;1.37;;;0.60;;
71288;SDS011;59068;52.502;9.860;2022-07-23T15:23:56;1.40;;;0.47;;
71288;SDS011;59068;52.502;9.860;2022-07-23T15:26:27;0.43;;;0.30;;
71288;SDS011;59068;52.502;9.860;2022-07-23T15:28:56;0.33;;;0.30;;
71288;SDS011;59068;52.502;9.860;2022-07-23T15:31:25;1.13;;;0.50;;
71288;SDS011;59068;52.502;9.860;2022-07-23T15:33:51;0.60;;;0.40;;
71288;SDS011;59068;52.502;9.860;2022-07-23T15:36:18;1.07;;;0.43;;
71288;SDS011;59068;52.502;9.860;2022-07-23T15:38:46;0.40;;;0.20;;
71288;SDS011;59068;52.502;9.860;2022-07-23T15:41:12;1.20;;;0.40;;
71288;SDS011;59068;52.502;9.860;2022-07-23T15:43:39;0.50;;;0.40;;
71288;SDS011;59068;52.502;9.860;2022-07-23T15:46:06;2.77;;;0.47;;
71288;SDS011;59068;52.502;9.860;2022-07-23T15:48:36;2.17;;;0.50;;
71288;SDS011;59068;52.502;9.860;2022-07-23T15:51:04;1.60;;;0.47;;
71288;SDS011;59068;52.502;9.860;2022-07-23T15:53:32;1.17;;;0.30;;